KZZV/ZZV METAR and TAF weather

Enter ICAO airport designator
Station Type Date Time Source
KZZV METAR 2020/07/13 13:53 UTC NOAA

KZZV 131353Z AUTO 00000KT 10SM CLR 23/19 A2993 RMK AO2 SLP131 T02280189


Station Type Date Time Source
KZZV Decoded METAR 2020/07/13 13:53 UTC NOAA

ZANESVILLE MUNICIPAL AIRPORT , OH, United States (KZZV) 39-57N 81-54W 268M
Jul 13, 2020 - 09:53 AM EDT / 2020.07.13 1353 UTC
Wind: Calm:0
Visibility: 10 mile(s):0
Sky conditions: clear
Temperature: 73.0 F (22.8 C)
Dew Point: 66.0 F (18.9 C)
Relative Humidity: 78%
Pressure (altimeter): 29.93 in. Hg (1013 hPa)
ob: KZZV 131353Z AUTO 00000KT 10SM CLR 23/19 A2993 RMK AO2 SLP131 T02280189
cycle: 14

Station Type Date Time Source
KZZV TAF 2020/07/13 12:42 UTC NOAA

TAF KZZV 131138Z 1312/1412 00000KT 6SM BR SCT001
FM131300 00000KT P6SM FEW020 FEW250
FM131400 33005KT P6SM FEW035 FEW150
FM140000 36003KT P6SM SKC
FM140700 00000KT 1/4SM FG BKN001

Example: see airport list